Albert J Ellis Airport Jacksonville US
ICAO: KOAJ
IATA: OAJ
Category: Medium
Scheduled Services: No

Elevation: 94 ft
TransAlt. 18000 ft.

Airport Communications:
WILMINGTON APP/DEP:121.4
AWOS 3:124.475
CTAF/UNICOM:123

KOAJ Zoom In..

Runways:

(A) RW 05 length 7100 ft width 150 ft
ILS 108.70 / hdg 52

(B) RW 23 length 7100 ft width 150 ft
---- / hdg 232

Location; KOAJ
Day. 21 / Time. 14.56 Zulu
* Altimeter: 30.18
* Temperature: 27° c. 80.6°f.
* Wind from: 240° Speed 07 kn.
Dewpoint: 22° c.
Visibility: 10 Statute Miles.
Clouds: Scattered 1900 ft.
Clouds: Broken 2500 ft.

KOAJ 211456Z AUTO 24007KT 10SM SCT019 BKN025 27/22 A3018 RMK AO2 SLP223 T02720222 50006


Wind From 240°
Speed 07 kn.

 
 
jpsmedia.com for Web Design SOUNDCLOUD worldairports.se 2018   terms of use